createdAt,value
2022-10-06T00:00:02.821Z,0
2022-10-06T00:05:03.455Z,0
2022-10-06T00:10:03.127Z,0
2022-10-06T00:15:02.914Z,0
2022-10-06T00:20:02.546Z,0
2022-10-06T00:25:03.490Z,0
2022-10-06T00:30:08.923Z,0
2022-10-06T00:35:02.764Z,0
2022-10-06T00:40:03.173Z,0
2022-10-06T00:45:02.749Z,0
2022-10-06T00:50:03.528Z,0
2022-10-06T00:55:04.325Z,0
2022-10-06T01:00:02.872Z,0
2022-10-06T01:05:03.499Z,0
2022-10-06T01:10:03.174Z,0
2022-10-06T01:15:03.600Z,0
2022-10-06T01:20:03.154Z,0
2022-10-06T01:25:02.793Z,0
2022-10-06T01:30:02.974Z,0
2022-10-06T01:35:02.656Z,0
2022-10-06T01:40:03.316Z,0
2022-10-06T01:45:03.191Z,0
2022-10-06T01:50:03.600Z,0
2022-10-06T01:55:04.024Z,0
2022-10-06T02:00:02.893Z,0
2022-10-06T02:05:03.525Z,0
2022-10-06T02:10:03.171Z,0
2022-10-06T02:15:02.829Z,0
2022-10-06T02:20:03.572Z,0
2022-10-06T02:25:03.283Z,0
2022-10-06T02:30:02.978Z,0
2022-10-06T02:35:03.416Z,0
2022-10-06T02:40:03.096Z,0
2022-10-06T02:45:02.802Z,0
2022-10-06T02:50:03.381Z,0
2022-10-06T02:55:03.812Z,0
2022-10-06T03:00:02.522Z,0
2022-10-06T03:05:03.013Z,0
2022-10-06T03:10:02.681Z,0
2022-10-06T03:15:03.320Z,0
2022-10-06T03:20:02.993Z,0
2022-10-06T03:25:02.603Z,0
2022-10-06T03:30:03.430Z,0
2022-10-06T03:35:03.214Z,0
2022-10-06T03:40:02.514Z,0
2022-10-06T03:45:03.373Z,0
2022-10-06T03:50:02.943Z,0
2022-10-06T03:55:03.437Z,0
2022-10-06T04:00:03.229Z,0
2022-10-06T04:05:02.848Z,0
2022-10-06T04:10:02.508Z,0
2022-10-06T04:15:03.223Z,0
2022-10-06T04:20:02.888Z,0
2022-10-06T04:25:02.605Z,0
2022-10-06T04:30:03.411Z,0
2022-10-06T04:35:03.097Z,0
2022-10-06T04:40:02.909Z,0
2022-10-06T04:45:03.450Z,0
2022-10-06T04:50:03.079Z,0.23
2022-10-06T04:55:03.607Z,1.02
2022-10-06T05:00:15.157Z,3.51
2022-10-06T05:05:02.918Z,12
2022-10-06T05:10:02.336Z,31.67
2022-10-06T05:15:03.315Z,51.67
2022-10-06T05:20:02.996Z,80
2022-10-06T05:25:02.693Z,91.67
2022-10-06T05:30:03.463Z,188.33
2022-10-06T05:35:03.065Z,258.33
2022-10-06T05:40:02.768Z,300
2022-10-06T05:45:03.427Z,486.67
2022-10-06T05:50:02.962Z,505
2022-10-06T05:55:03.840Z,678.33
2022-10-06T06:00:03.465Z,668.33
2022-10-06T06:05:03.140Z,731.67
2022-10-06T06:10:02.805Z,720
2022-10-06T06:15:02.545Z,735
2022-10-06T06:20:03.181Z,1080
2022-10-06T06:25:02.843Z,1280
2022-10-06T06:30:02.561Z,1426.67
2022-10-06T06:35:03.222Z,1750
2022-10-06T06:40:02.865Z,2175
2022-10-06T06:45:02.562Z,2381.67
2022-10-06T06:50:03.220Z,2178.33
2022-10-06T06:55:03.848Z,3933.33
2022-10-06T07:00:02.620Z,2661.67
2022-10-06T07:05:03.284Z,4846.67
2022-10-06T07:10:02.941Z,3395
2022-10-06T07:15:02.626Z,2675
2022-10-06T07:20:03.301Z,2850
2022-10-06T07:25:02.970Z,6313.33
2022-10-06T07:30:02.824Z,6395
2022-10-06T07:35:03.302Z,6701.67
2022-10-06T07:40:03.435Z,6791.67
2022-10-06T07:45:03.130Z,6495
2022-10-06T07:50:02.834Z,6791.67
2022-10-06T07:55:04.358Z,7620
2022-10-06T08:00:03.995Z,7861.67
2022-10-06T08:05:02.780Z,7551.67
2022-10-06T08:10:03.494Z,10833.33
2022-10-06T08:15:08.311Z,11020
2022-10-06T08:20:03.041Z,11110
2022-10-06T08:25:09.590Z,2338.33
2022-10-06T08:30:03.597Z,12066.67
2022-10-06T08:35:03.272Z,11893.33
2022-10-06T08:40:03.284Z,12183.33
2022-10-06T08:45:03.058Z,10320
2022-10-06T08:50:03.603Z,11565
2022-10-06T08:55:04.291Z,12143.33
2022-10-06T09:00:02.958Z,12820
2022-10-06T09:05:03.729Z,11665
2022-10-06T09:10:03.329Z,11941.67
2022-10-06T09:15:02.999Z,10076.67
2022-10-06T09:20:02.673Z,9368.33
2022-10-06T09:25:03.324Z,5218.33
2022-10-06T09:30:02.991Z,5301.67
2022-10-06T09:35:02.732Z,32966.67
2022-10-06T09:40:03.296Z,34906.67
2022-10-06T09:45:03.022Z,30323.33
2022-10-06T09:50:02.491Z,35450
2022-10-06T09:55:04.121Z,39696.67
2022-10-06T10:00:03.030Z,3875
2022-10-06T10:05:02.687Z,34830
2022-10-06T10:10:03.409Z,35896.67
2022-10-06T10:15:03.153Z,34006.67
2022-10-06T10:20:02.869Z,33473.33
2022-10-06T10:25:02.519Z,29230
2022-10-06T10:30:03.254Z,31826.67
2022-10-06T10:35:02.923Z,33420
2022-10-06T10:40:02.581Z,32653.33
2022-10-06T10:45:03.307Z,32356.67
2022-10-06T10:50:02.882Z,29456.67
2022-10-06T10:55:03.888Z,29733.33
2022-10-06T11:00:03.270Z,29270
2022-10-06T11:05:02.900Z,28520
2022-10-06T11:10:02.579Z,29136.67
2022-10-06T11:15:03.193Z,28640
2022-10-06T11:20:02.935Z,13295
2022-10-06T11:25:04.195Z,10700
2022-10-06T11:30:03.239Z,13596.67
2022-10-06T11:35:03.063Z,30343.33
2022-10-06T11:40:03.017Z,31316.67
2022-10-06T11:45:03.525Z,28476.67
2022-10-06T11:50:03.345Z,13250
2022-10-06T11:55:03.841Z,13431.67
2022-10-06T12:00:03.503Z,12561.67
2022-10-06T12:05:03.246Z,11851.67
2022-10-06T12:10:02.889Z,12135
2022-10-06T12:20:02.729Z,29606.67
2022-10-06T12:25:03.505Z,27503.33
2022-10-06T12:30:03.423Z,27643.33
2022-10-06T12:35:03.486Z,13178.33
2022-10-06T12:40:02.639Z,11621.67
2022-10-06T12:45:03.316Z,11315
2022-10-06T12:50:02.996Z,9531.67
2022-10-06T12:55:03.910Z,10513.33
2022-10-06T13:00:03.501Z,9223.33
2022-10-06T13:05:03.536Z,9266.67
2022-10-06T13:10:03.473Z,8715
2022-10-06T13:15:02.964Z,8335
2022-10-06T13:20:02.864Z,9078.33
2022-10-06T13:25:03.112Z,8641.67
2022-10-06T13:30:02.772Z,8865
2022-10-06T13:35:03.376Z,7678.33
2022-10-06T13:40:44.829Z,7613.33
2022-10-06T13:45:02.939Z,7471.67
2022-10-06T13:50:04.708Z,7351.67
2022-10-06T13:55:04.826Z,6435
2022-10-06T14:00:03.330Z,6350
2022-10-06T14:05:03.528Z,5535
2022-10-06T14:10:03.184Z,5111.67
2022-10-06T14:15:02.894Z,6153.33
2022-10-06T14:20:04.004Z,5788.33
2022-10-06T14:25:03.188Z,5123.33
2022-10-06T14:30:03.982Z,5028.33
2022-10-06T14:35:02.657Z,4708.33
2022-10-06T14:40:04.119Z,4570
2022-10-06T14:45:03.790Z,4113.33
2022-10-06T14:50:02.570Z,3648.33
2022-10-06T14:55:04.402Z,3480
2022-10-06T15:00:04.166Z,3311.67
2022-10-06T15:05:02.835Z,3073.33
2022-10-06T15:10:02.532Z,2911.67
2022-10-06T15:15:03.246Z,2585
2022-10-06T15:20:02.929Z,2435
2022-10-06T15:25:02.554Z,2321.67
2022-10-06T15:30:03.333Z,2015
2022-10-06T15:35:03.012Z,1816.67
2022-10-06T15:40:02.889Z,1546.67
2022-10-06T15:45:07.983Z,1226.67
2022-10-06T15:50:04.167Z,1011.67
2022-10-06T15:55:03.956Z,930
2022-10-06T16:00:03.401Z,853.33
2022-10-06T16:05:03.029Z,775
2022-10-06T16:10:02.676Z,695
2022-10-06T16:15:03.558Z,590
2022-10-06T16:20:03.426Z,508.33
2022-10-06T16:25:03.284Z,381.67
2022-10-06T16:30:02.881Z,283.33
2022-10-06T16:35:03.493Z,205
2022-10-06T16:40:03.013Z,133.33
2022-10-06T16:45:02.921Z,80
2022-10-06T16:50:03.321Z,43.33
2022-10-06T16:55:04.129Z,20
2022-10-06T17:00:02.939Z,6.67
2022-10-06T17:05:03.418Z,6.79
2022-10-06T17:10:21.981Z,0.91
2022-10-06T17:15:02.767Z,0.23
2022-10-06T17:20:03.495Z,0
2022-10-06T17:25:03.145Z,0
2022-10-06T17:30:02.958Z,0
2022-10-06T17:35:03.330Z,0
2022-10-06T17:40:03.132Z,0
2022-10-06T17:45:02.922Z,0
2022-10-06T17:50:03.524Z,0
2022-10-06T17:55:04.408Z,0
2022-10-06T18:00:02.880Z,0
2022-10-06T18:05:03.500Z,0
2022-10-06T18:10:03.130Z,0
2022-10-06T18:15:02.814Z,0
2022-10-06T18:20:03.479Z,0
2022-10-06T18:25:03.155Z,0
2022-10-06T18:30:02.796Z,0
2022-10-06T18:40:02.898Z,0
2022-10-06T18:45:03.415Z,0
2022-10-06T18:50:02.844Z,0
2022-10-06T18:55:03.701Z,0
2022-10-06T19:00:03.140Z,0
2022-10-06T19:05:02.789Z,0
2022-10-06T19:10:03.392Z,0
2022-10-06T19:15:03.041Z,0
2022-10-06T19:20:02.900Z,0
2022-10-06T19:25:02.333Z,0
2022-10-06T19:30:03.166Z,0
2022-10-06T19:35:11.051Z,0
2022-10-06T19:40:02.737Z,0
2022-10-06T19:45:03.393Z,0
2022-10-06T19:50:12.692Z,0
2022-10-06T19:55:03.806Z,0
2022-10-06T20:00:03.442Z,0
2022-10-06T20:05:03.033Z,0
2022-10-06T20:10:02.564Z,0
2022-10-06T20:15:03.242Z,0
2022-10-06T20:20:02.888Z,0
2022-10-06T20:25:02.644Z,0
2022-10-06T20:30:03.230Z,0
2022-10-06T20:35:02.789Z,0
2022-10-06T20:40:02.565Z,0
2022-10-06T20:45:03.239Z,0
2022-10-06T20:50:02.826Z,0
2022-10-06T20:55:03.746Z,0
2022-10-06T21:00:03.170Z,0
2022-10-06T21:05:02.751Z,0
2022-10-06T21:10:03.427Z,0
2022-10-06T21:15:03.085Z,0
2022-10-06T21:20:02.740Z,0
2022-10-06T21:25:03.427Z,0
2022-10-06T21:30:03.102Z,0
2022-10-06T21:35:02.666Z,0
2022-10-06T21:40:03.327Z,0
2022-10-06T21:45:02.886Z,0
2022-10-06T21:50:02.721Z,0
2022-10-06T21:55:04.216Z,0
2022-10-06T22:00:03.211Z,0
2022-10-06T22:05:02.704Z,0
2022-10-06T22:10:03.239Z,0
2022-10-06T22:15:02.879Z,0
2022-10-06T22:20:02.550Z,0
2022-10-06T22:25:03.159Z,0
2022-10-06T22:30:02.788Z,0
2022-10-06T22:35:03.314Z,0
2022-10-06T22:40:08.099Z,0
2022-10-06T22:45:02.779Z,0
2022-10-06T22:50:03.380Z,0
2022-10-06T22:55:04.316Z,0
2022-10-06T23:00:02.635Z,0
2022-10-06T23:05:03.289Z,0
2022-10-06T23:10:02.954Z,0
2022-10-06T23:15:02.746Z,0
2022-10-06T23:20:03.412Z,0
2022-10-06T23:25:03.266Z,0
2022-10-06T23:30:02.920Z,0
2022-10-06T23:35:02.491Z,0
2022-10-06T23:40:03.283Z,0
2022-10-06T23:45:03.032Z,0
2022-10-06T23:50:02.637Z,0
2022-10-06T23:55:04.327Z,0
